Time;durP1;ratioP1;P1;durP2;ratioP2;P2;SDS_P1;SDS_P2;PMS_P1;PMS_P2;Temp;Humidity;BMP_temperature;BMP_pressure;BME280_temperature;BME280_humidity;BME280_pressure;Samples;Min_cycle;Max_cycle;Signal;HPM_P1;HPM_P2
2022/04/02 00:00:05;;;;;;;7.35;2.20;;;;;;;;;;4971986;28;20039;-87
2022/04/02 00:02:30;;;;;;;4.10;2.10;;;;;;;;;;4968841;28;20035;-87
2022/04/02 00:04:55;;;;;;;4.30;2.00;;;;;;;;;;4974410;28;20379;-88
2022/04/02 00:07:21;;;;;;;5.07;2.00;;;;;;;;;;4960173;28;20035;-88
2022/04/02 00:09:47;;;;;;;6.22;2.22;;;;;;;;;;4965234;28;20118;-88
2022/04/02 00:12:12;;;;;;;6.93;2.28;;;;;;;;;;4973681;28;20512;-87
2022/04/02 00:14:37;;;;;;;6.05;2.15;;;;;;;;;;4960731;28;20130;-87
2022/04/02 00:17:03;;;;;;;5.55;2.38;;;;;;;;;;4966834;28;20038;-88
2022/04/02 00:19:30;;;;;;;4.88;2.38;;;;;;;;;;4978081;28;20047;-88
2022/04/02 00:21:56;;;;;;;4.25;2.30;;;;;;;;;;4982089;28;20045;-89
2022/04/02 00:24:21;;;;;;;5.53;2.38;;;;;;;;;;4984087;28;20034;-89
2022/04/02 00:26:47;;;;;;;5.93;3.00;;;;;;;;;;4973447;28;20033;-87
2022/04/02 00:29:12;;;;;;;4.95;2.10;;;;;;;;;;4981596;28;20038;-87
2022/04/02 00:31:38;;;;;;;5.35;2.95;;;;;;;;;;4966806;28;20045;-88
2022/04/02 00:34:03;;;;;;;8.95;4.03;;;;;;;;;;4962665;28;20038;-89
2022/04/02 00:36:31;;;;;;;8.32;3.95;;;;;;;;;;4967864;28;20042;-91
2022/04/02 00:38:56;;;;;;;;;;;;;;;;;;4966089;28;20450;-88
2022/04/02 00:41:21;;;;;;;7.43;3.20;;;;;;;;;;4976641;28;19922;-90
2022/04/02 00:44:06;;;;;;;6.50;2.85;;;;;;;;;;4968391;28;20030;-90
2022/04/02 00:46:32;;;;;;;7.75;3.00;;;;;;;;;;4983386;28;20035;-90
2022/04/02 00:48:57;;;;;;;5.82;2.42;;;;;;;;;;4967149;28;20105;-88
2022/04/02 00:51:26;;;;;;;6.32;2.38;;;;;;;;;;4972380;28;20030;-90
2022/04/02 00:53:53;;;;;;;7.57;2.97;;;;;;;;;;4966981;28;20038;-89
2022/04/02 00:56:19;;;;;;;6.35;2.80;;;;;;;;;;4976281;28;20434;-91
2022/04/02 00:58:45;;;;;;;7.13;2.75;;;;;;;;;;4981545;28;20094;-90
2022/04/02 01:01:11;;;;;;;5.88;2.78;;;;;;;;;;4983680;28;20050;-89
2022/04/02 01:03:36;;;;;;;7.22;2.90;;;;;;;;;;4961117;28;20038;-89
2022/04/02 01:06:05;;;;;;;5.18;2.47;;;;;;;;;;4960813;28;20058;-89
2022/04/02 01:08:31;;;;;;;7.05;3.08;;;;;;;;;;4974768;28;20042;-90
2022/04/02 01:10:57;;;;;;;6.07;3.13;;;;;;;;;;4967207;28;20046;-88
2022/04/02 01:13:25;;;;;;;8.70;3.40;;;;;;;;;;4969323;28;20042;-90
2022/04/02 01:15:50;;;;;;;;;;;;;;;;;;4968465;28;20049;-91
2022/04/02 01:18:16;;;;;;;6.32;2.50;;;;;;;;;;4965221;28;19940;-89
2022/04/02 01:20:41;;;;;;;6.20;2.30;;;;;;;;;;4958589;28;20027;-89
2022/04/02 01:23:09;;;;;;;5.95;2.45;;;;;;;;;;4975662;28;20057;-88
2022/04/02 01:25:35;;;;;;;7.03;2.45;;;;;;;;;;4979888;28;20114;-88
2022/04/02 01:28:02;;;;;;;5.97;2.53;;;;;;;;;;4979370;28;20042;-90
2022/04/02 01:30:28;;;;;;;6.32;2.63;;;;;;;;;;4961027;28;20041;-89
2022/04/02 01:32:54;;;;;;;5.22;2.55;;;;;;;;;;4977319;28;20141;-88
2022/04/02 01:35:22;;;;;;;5.25;2.25;;;;;;;;;;4977993;28;20034;-89
2022/04/02 01:37:50;;;;;;;4.93;2.30;;;;;;;;;;4972631;28;20061;-89
2022/04/02 01:40:16;;;;;;;5.72;2.38;;;;;;;;;;4969871;28;20035;-90
2022/04/02 01:42:45;;;;;;;7.10;2.50;;;;;;;;;;4983808;28;20031;-90
2022/04/02 01:45:11;;;;;;;4.65;2.10;;;;;;;;;;4980889;28;20049;-87
2022/04/02 01:47:36;;;;;;;5.60;2.67;;;;;;;;;;4968387;28;20162;-89
2022/04/02 01:50:06;;;;;;;6.63;2.35;;;;;;;;;;4956915;28;20466;-89
2022/04/02 01:52:32;;;;;;;4.88;2.17;;;;;;;;;;4979156;28;20562;-91
2022/04/02 01:54:57;;;;;;;5.88;2.22;;;;;;;;;;4967199;28;20144;-87
2022/04/02 01:57:23;;;;;;;6.22;2.63;;;;;;;;;;4965896;28;20074;-88
2022/04/02 01:59:49;;;;;;;5.82;2.53;;;;;;;;;;4974860;28;20034;-88
2022/04/02 02:02:20;;;;;;;6.37;2.37;;;;;;;;;;4965961;28;20042;-90
2022/04/02 02:04:45;;;;;;;6.03;2.40;;;;;;;;;;4974002;28;20979;-90
2022/04/02 02:07:11;;;;;;;5.78;2.00;;;;;;;;;;4981740;28;20129;-88
2022/04/02 02:09:36;;;;;;;5.00;2.25;;;;;;;;;;4974881;28;20039;-91
2022/04/02 02:12:02;;;;;;;4.70;2.22;;;;;;;;;;4960388;28;20039;-91
2022/04/02 02:14:29;;;;;;;6.50;2.22;;;;;;;;;;4971194;28;20057;-87
2022/04/02 02:16:54;;;;;;;4.95;2.40;;;;;;;;;;4965760;28;20050;-87
2022/04/02 02:19:22;;;;;;;4.55;2.30;;;;;;;;;;4962063;28;20078;-88
2022/04/02 02:21:47;;;;;;;;;;;;;;;;;;4973194;28;20123;-90
2022/04/02 02:24:19;;;;;;;6.40;2.20;;;;;;;;;;4967032;28;19929;-88
2022/04/02 02:26:45;;;;;;;8.93;2.60;;;;;;;;;;4972639;28;20517;-90
2022/04/02 02:29:11;;;;;;;4.37;2.30;;;;;;;;;;4973905;28;20038;-88
2022/04/02 02:31:36;;;;;;;7.78;2.30;;;;;;;;;;4974932;28;20035;-88
2022/04/02 02:36:47;;;;;;;6.55;2.53;;;;;;;;;;4981009;28;20045;-88
2022/04/02 02:39:12;;;;;;;6.75;2.30;;;;;;;;;;4978067;28;20038;-91
2022/04/02 02:41:38;;;;;;;5.63;2.10;;;;;;;;;;4980592;28;20038;-91
2022/04/02 02:44:04;;;;;;;4.75;2.15;;;;;;;;;;4983437;28;20405;-88
2022/04/02 02:46:29;;;;;;;4.40;2.20;;;;;;;;;;4965226;28;20038;-91
2022/04/02 02:48:55;;;;;;;6.60;2.20;;;;;;;;;;4982312;28;20038;-89
2022/04/02 02:51:21;;;;;;;6.32;2.60;;;;;;;;;;4972750;28;20046;-90
2022/04/02 02:53:47;;;;;;;7.72;2.50;;;;;;;;;;4958035;28;20034;-90
2022/04/02 02:56:12;;;;;;;5.60;2.10;;;;;;;;;;4966713;28;20057;-90
2022/04/02 02:58:38;;;;;;;5.40;2.10;;;;;;;;;;4978855;28;20061;-89
2022/04/02 03:01:06;;;;;;;4.85;2.00;;;;;;;;;;4980613;28;20039;-90
2022/04/02 03:03:34;;;;;;;6.72;2.00;;;;;;;;;;4982513;28;20042;-90
2022/04/02 03:06:03;;;;;;;5.57;2.10;;;;;;;;;;4955409;28;20051;-87
2022/04/02 03:08:30;;;;;;;5.65;2.35;;;;;;;;;;4975755;28;20061;-86
2022/04/02 03:10:56;;;;;;;3.63;1.98;;;;;;;;;;4985915;28;20037;-88
2022/04/02 03:13:21;;;;;;;6.63;2.30;;;;;;;;;;4981920;28;20609;-87
2022/04/02 03:15:47;;;;;;;5.63;1.85;;;;;;;;;;4971440;28;20069;-87
2022/04/02 03:18:12;;;;;;;4.70;2.20;;;;;;;;;;4980570;28;20046;-86
2022/04/02 03:20:41;;;;;;;6.15;2.33;;;;;;;;;;4984779;28;20065;-86
2022/04/02 03:23:06;;;;;;;7.85;2.13;;;;;;;;;;4973091;28;20085;-88
2022/04/02 03:25:32;;;;;;;6.82;2.13;;;;;;;;;;4975444;28;20027;-86
2022/04/02 03:27:58;;;;;;;6.15;2.17;;;;;;;;;;4981520;28;20548;-88
2022/04/02 03:30:24;;;;;;;5.63;1.77;;;;;;;;;;4985674;28;20493;-88
2022/04/02 03:32:51;;;;;;;5.13;2.72;;;;;;;;;;4968659;28;20049;-87
2022/04/02 03:35:18;;;;;;;6.50;2.10;;;;;;;;;;4965752;28;20043;-87
2022/04/02 03:37:44;;;;;;;7.03;2.10;;;;;;;;;;4980151;28;20046;-88
2022/04/02 03:40:14;;;;;;;5.07;2.22;;;;;;;;;;4972223;28;20085;-87
2022/04/02 03:42:41;;;;;;;5.25;2.10;;;;;;;;;;4969300;28;20038;-88
2022/04/02 03:45:08;;;;;;;4.57;2.00;;;;;;;;;;4982791;28;20124;-88
2022/04/02 03:47:33;;;;;;;6.43;1.93;;;;;;;;;;4974317;28;20889;-89
2022/04/02 03:49:59;;;;;;;6.25;2.10;;;;;;;;;;4971539;28;20316;-89
2022/04/02 03:52:27;;;;;;;5.85;2.50;;;;;;;;;;4964453;28;20984;-89
2022/04/02 03:54:53;;;;;;;5.80;2.03;;;;;;;;;;4966346;28;20448;-88
2022/04/02 03:57:19;;;;;;;4.90;2.10;;;;;;;;;;4972753;28;20046;-87
2022/04/02 03:59:47;;;;;;;9.13;2.30;;;;;;;;;;4973280;28;20449;-88
2022/04/02 04:02:13;;;;;;;7.65;2.55;;;;;;;;;;4962669;28;20569;-88
2022/04/02 04:04:38;;;;;;;5.35;2.40;;;;;;;;;;4971603;28;20121;-88
2022/04/02 04:07:05;;;;;;;6.95;2.38;;;;;;;;;;4977830;28;20061;-87
2022/04/02 04:09:30;;;;;;;6.53;2.40;;;;;;;;;;4965399;28;20082;-89
2022/04/02 04:11:58;;;;;;;5.65;2.50;;;;;;;;;;4980957;28;20070;-88
2022/04/02 04:14:26;;;;;;;5.53;2.38;;;;;;;;;;4972783;28;20090;-87
2022/04/02 04:16:52;;;;;;;5.63;2.30;;;;;;;;;;4980293;28;20193;-87
2022/04/02 04:19:18;;;;;;;6.22;2.40;;;;;;;;;;4989002;28;20509;-87
2022/04/02 04:21:44;;;;;;;6.82;2.60;;;;;;;;;;4970690;28;20042;-86
2022/04/02 04:24:10;;;;;;;5.03;2.45;;;;;;;;;;4981443;28;20490;-87
2022/04/02 04:26:36;;;;;;;7.82;2.60;;;;;;;;;;4969987;28;20117;-87
2022/04/02 04:29:02;;;;;;;8.02;2.85;;;;;;;;;;4962432;28;20485;-87
2022/04/02 04:31:28;;;;;;;5.30;2.33;;;;;;;;;;4961427;28;20085;-86
2022/04/02 04:33:53;;;;;;;6.00;2.45;;;;;;;;;;4965618;28;20042;-88
2022/04/02 04:36:19;;;;;;;5.15;2.13;;;;;;;;;;4966501;28;20129;-87
2022/04/02 04:38:49;;;;;;;6.03;2.30;;;;;;;;;;4964861;28;20042;-90
2022/04/02 04:41:17;;;;;;;5.65;2.28;;;;;;;;;;4975078;28;20466;-90
2022/04/02 04:43:43;;;;;;;7.60;2.45;;;;;;;;;;4969239;28;20039;-89
2022/04/02 04:46:09;;;;;;;5.82;2.30;;;;;;;;;;4974184;28;20106;-88
2022/04/02 04:48:38;;;;;;;7.68;2.00;;;;;;;;;;4967796;28;20098;-89
2022/04/02 04:51:04;;;;;;;4.93;2.15;;;;;;;;;;4984336;28;20394;-88
2022/04/02 04:53:32;;;;;;;4.88;2.30;;;;;;;;;;4969616;28;20046;-87
2022/04/02 04:55:58;;;;;;;6.65;2.42;;;;;;;;;;4978355;28;20034;-87
2022/04/02 04:58:23;;;;;;;5.60;2.00;;;;;;;;;;4968638;28;20508;-84
2022/04/02 05:00:49;;;;;;;5.80;2.25;;;;;;;;;;4966117;28;20049;-86
2022/04/02 05:03:14;;;;;;;5.40;2.03;;;;;;;;;;4965711;28;20059;-85
2022/04/02 05:05:39;;;;;;;4.57;2.30;;;;;;;;;;4973796;28;20066;-85
2022/04/02 05:08:06;;;;;;;5.53;2.25;;;;;;;;;;4968598;28;20052;-85
2022/04/02 05:10:32;;;;;;;8.27;2.65;;;;;;;;;;4971044;28;20150;-86
2022/04/02 05:12:58;;;;;;;5.68;2.17;;;;;;;;;;4962224;28;20042;-86
2022/04/02 05:15:23;;;;;;;7.30;2.45;;;;;;;;;;4973858;28;20050;-87
2022/04/02 05:17:49;;;;;;;4.22;2.20;;;;;;;;;;4964358;28;20066;-86
2022/04/02 05:20:14;;;;;;;7.03;2.28;;;;;;;;;;4972491;28;20089;-85
2022/04/02 05:22:41;;;;;;;5.78;2.30;;;;;;;;;;4977972;28;20589;-86
2022/04/02 05:25:07;;;;;;;6.63;2.40;;;;;;;;;;4972590;28;20054;-86
2022/04/02 05:27:33;;;;;;;6.60;2.40;;;;;;;;;;4991225;28;20089;-85
2022/04/02 05:30:00;;;;;;;6.38;2.78;;;;;;;;;;4981755;28;20049;-86
2022/04/02 05:32:26;;;;;;;7.47;2.40;;;;;;;;;;4972719;28;20030;-87
2022/04/02 05:34:51;;;;;;;7.15;2.30;;;;;;;;;;4971298;28;20458;-86
2022/04/02 05:37:17;;;;;;;5.22;2.38;;;;;;;;;;4966323;28;20126;-86
2022/04/02 05:39:42;;;;;;;7.00;2.58;;;;;;;;;;4966153;28;20122;-86
2022/04/02 05:42:12;;;;;;;6.35;2.40;;;;;;;;;;4973114;28;20046;-87
2022/04/02 05:44:43;;;;;;;4.50;2.13;;;;;;;;;;4976281;28;20049;-87
2022/04/02 05:47:09;;;;;;;7.13;2.22;;;;;;;;;;4963171;28;20101;-88
2022/04/02 05:49:35;;;;;;;8.77;2.60;;;;;;;;;;4966373;28;20038;-87
2022/04/02 05:52:00;;;;;;;7.43;2.30;;;;;;;;;;4973372;28;20126;-85
2022/04/02 05:54:26;;;;;;;5.18;2.33;;;;;;;;;;4974170;28;20062;-85
2022/04/02 05:56:52;;;;;;;5.95;2.35;;;;;;;;;;4957554;28;20139;-86
2022/04/02 05:59:23;;;;;;;7.30;2.30;;;;;;;;;;4973740;28;20039;-86
2022/04/02 06:01:49;;;;;;;5.53;2.10;;;;;;;;;;4943051;28;20042;-81
2022/04/02 06:04:15;;;;;;;6.45;2.75;;;;;;;;;;4973183;28;20109;-82
2022/04/02 06:06:41;;;;;;;6.05;2.10;;;;;;;;;;4973422;28;20034;-81
2022/04/02 06:09:06;;;;;;;6.13;2.17;;;;;;;;;;4976460;28;20532;-81
2022/04/02 06:11:32;;;;;;;8.70;3.20;;;;;;;;;;4981303;28;20759;-81
2022/04/02 06:13:58;;;;;;;6.90;2.15;;;;;;;;;;4975095;28;20042;-81
2022/04/02 06:16:23;;;;;;;4.18;1.98;;;;;;;;;;4955751;28;20050;-81
2022/04/02 06:18:50;;;;;;;6.05;2.38;;;;;;;;;;4962825;28;20170;-81
2022/04/02 06:21:15;;;;;;;7.00;2.40;;;;;;;;;;4974449;28;20046;-81
2022/04/02 06:23:42;;;;;;;6.45;2.53;;;;;;;;;;4979608;28;20038;-81
2022/04/02 06:26:08;;;;;;;6.38;2.42;;;;;;;;;;4974136;28;20034;-82
2022/04/02 06:28:33;;;;;;;5.68;2.20;;;;;;;;;;4973156;28;20658;-82
2022/04/02 06:30:59;;;;;;;6.93;2.35;;;;;;;;;;4980997;28;20379;-82
2022/04/02 06:33:24;;;;;;;7.80;2.15;;;;;;;;;;4976393;28;20046;-81
2022/04/02 06:35:49;;;;;;;5.80;2.17;;;;;;;;;;4974781;28;20112;-81
2022/04/02 06:38:16;;;;;;;5.90;2.22;;;;;;;;;;4974175;28;20489;-82
2022/04/02 06:40:42;;;;;;;5.87;2.57;;;;;;;;;;4973138;28;20397;-81
2022/04/02 06:43:07;;;;;;;6.88;2.20;;;;;;;;;;4981753;28;20286;-80
2022/04/02 06:45:32;;;;;;;6.88;2.47;;;;;;;;;;4970879;28;20522;-81
2022/04/02 06:47:58;;;;;;;5.75;2.50;;;;;;;;;;4976765;28;20461;-81
2022/04/02 06:50:23;;;;;;;6.03;2.20;;;;;;;;;;4977922;28;20534;-81
2022/04/02 06:52:49;;;;;;;5.78;2.30;;;;;;;;;;4973634;28;20030;-81
2022/04/02 06:55:17;;;;;;;5.30;2.33;;;;;;;;;;4978254;28;20092;-80
2022/04/02 06:57:52;;;;;;;5.78;2.63;;;;;;;;;;4973619;28;20516;-79
2022/04/02 07:00:18;;;;;;;4.47;1.95;;;;;;;;;;4971304;28;20074;-79
2022/04/02 07:02:43;;;;;;;6.22;2.10;;;;;;;;;;4961426;28;20086;-85
2022/04/02 07:05:09;;;;;;;5.35;2.15;;;;;;;;;;4973655;28;20124;-84
2022/04/02 07:07:36;;;;;;;4.38;1.92;;;;;;;;;;4972327;28;20122;-81
2022/04/02 07:10:06;;;;;;;5.05;1.92;;;;;;;;;;4972537;28;20038;-85
2022/04/02 07:12:32;;;;;;;6.90;1.75;;;;;;;;;;4974092;28;20126;-83
2022/04/02 07:14:58;;;;;;;5.78;2.13;;;;;;;;;;4974054;28;20138;-83
2022/04/02 07:17:23;;;;;;;5.15;1.98;;;;;;;;;;4972171;28;20511;-82
2022/04/02 07:19:49;;;;;;;5.60;1.90;;;;;;;;;;4970733;28;20043;-82
2022/04/02 07:22:17;;;;;;;5.63;2.00;;;;;;;;;;4973383;28;20042;-82
2022/04/02 07:24:43;;;;;;;5.05;1.75;;;;;;;;;;4980482;28;20472;-83
2022/04/02 07:27:09;;;;;;;6.28;2.10;;;;;;;;;;4966921;28;20122;-82
2022/04/02 07:29:35;;;;;;;7.95;2.17;;;;;;;;;;4980739;28;20050;-84
2022/04/02 07:32:00;;;;;;;4.57;1.95;;;;;;;;;;4978869;28;20039;-84
2022/04/02 07:34:26;;;;;;;5.55;2.00;;;;;;;;;;4975754;28;20085;-85
2022/04/02 07:37:08;;;;;;;6.47;2.05;;;;;;;;;;4991059;28;20046;-82
2022/04/02 07:39:45;;;;;;;6.68;1.88;;;;;;;;;;4976111;28;20039;-82
2022/04/02 07:42:20;;;;;;;6.38;2.05;;;;;;;;;;4977116;28;20038;-82
2022/04/02 07:45:06;;;;;;;5.10;2.20;;;;;;;;;;4984429;28;20043;-85
2022/04/02 07:47:34;;;;;;;6.05;2.03;;;;;;;;;;4973895;28;20034;-82
2022/04/02 07:50:09;;;;;;;5.03;1.92;;;;;;;;;;4977331;28;20047;-83
2022/04/02 07:52:38;;;;;;;5.13;2.03;;;;;;;;;;4977008;28;20062;-82
2022/04/02 07:55:06;;;;;;;5.15;2.00;;;;;;;;;;4983804;28;20035;-84
2022/04/02 07:57:46;;;;;;;5.93;2.03;;;;;;;;;;4975832;28;20041;-83
2022/04/02 08:00:19;;;;;;;3.88;1.80;;;;;;;;;;4983940;28;20046;-82
2022/04/02 08:02:46;;;;;;;6.43;2.20;;;;;;;;;;4979524;28;20149;-84
2022/04/02 08:05:16;;;;;;;6.13;2.00;;;;;;;;;;4979829;28;20042;-83
2022/04/02 08:07:44;;;;;;;4.97;1.77;;;;;;;;;;4964832;28;20792;-84
2022/04/02 08:10:12;;;;;;;4.47;2.17;;;;;;;;;;4978599;28;20075;-82
2022/04/02 08:12:39;;;;;;;5.38;1.92;;;;;;;;;;4977731;28;20097;-84
2022/04/02 08:15:07;;;;;;;6.75;2.10;;;;;;;;;;4982528;28;20520;-82
2022/04/02 08:17:32;;;;;;;6.43;2.00;;;;;;;;;;4975964;28;20053;-81
2022/04/02 08:19:59;;;;;;;7.47;1.92;;;;;;;;;;4978313;28;20042;-81
2022/04/02 08:22:25;;;;;;;4.93;1.50;;;;;;;;;;4960589;28;20035;-84
2022/04/02 08:24:51;;;;;;;8.13;2.03;;;;;;;;;;4968795;28;20046;-81
2022/04/02 08:27:45;;;;;;;5.18;1.83;;;;;;;;;;4974521;28;20034;-82
2022/04/02 08:30:16;;;;;;;6.68;1.45;;;;;;;;;;4976696;28;20397;-82
2022/04/02 08:33:03;;;;;;;8.75;1.80;;;;;;;;;;4977508;28;20045;-83
2022/04/02 08:35:34;;;;;;;5.57;1.60;;;;;;;;;;4970312;28;20510;-84
2022/04/02 08:38:22;;;;;;;4.75;1.60;;;;;;;;;;4959063;28;20047;-82
2022/04/02 08:41:09;;;;;;;5.78;1.88;;;;;;;;;;4960221;28;20073;-83
2022/04/02 08:43:59;;;;;;;8.27;1.67;;;;;;;;;;4958193;28;20059;-83
2022/04/02 08:46:43;;;;;;;3.88;1.60;;;;;;;;;;4948655;28;20041;-82
2022/04/02 08:49:26;;;;;;;6.40;1.48;;;;;;;;;;4965096;28;20601;-83
2022/04/02 08:52:13;;;;;;;5.32;1.40;;;;;;;;;;4961266;28;20070;-83
2022/04/02 08:55:08;;;;;;;2.88;1.30;;;;;;;;;;4961332;28;20066;-79
2022/04/02 08:57:54;;;;;;;4.00;1.40;;;;;;;;;;4954283;28;20489;-82
2022/04/02 09:00:25;;;;;;;3.92;1.60;;;;;;;;;;4951600;28;20098;-84
2022/04/02 09:02:53;;;;;;;3.83;1.60;;;;;;;;;;4976516;28;20042;-83
2022/04/02 09:05:46;;;;;;;4.03;1.40;;;;;;;;;;4970207;28;21196;-84
2022/04/02 09:08:26;;;;;;;4.40;1.75;;;;;;;;;;4960416;28;20510;-84
2022/04/02 09:11:21;;;;;;;3.97;1.58;;;;;;;;;;4965880;28;20513;-85
2022/04/02 09:14:05;;;;;;;3.95;1.40;;;;;;;;;;4950379;28;20032;-84
2022/04/02 09:16:54;;;;;;;4.93;1.90;;;;;;;;;;4965831;28;20038;-85
2022/04/02 09:19:41;;;;;;;5.13;1.75;;;;;;;;;;4983222;28;20049;-84
2022/04/02 09:22:13;;;;;;;5.68;1.58;;;;;;;;;;4973648;28;20049;-84
2022/04/02 09:25:12;;;;;;;4.05;1.50;;;;;;;;;;4979625;28;20768;-86
2022/04/02 09:28:02;;;;;;;3.97;1.58;;;;;;;;;;4974836;28;20398;-84
2022/04/02 09:30:27;;;;;;;7.57;1.60;;;;;;;;;;4979718;28;20038;-85
2022/04/02 09:33:13;;;;;;;6.20;1.85;;;;;;;;;;4975786;28;20050;-84
2022/04/02 09:36:04;;;;;;;5.85;1.77;;;;;;;;;;4957393;28;20077;-85
2022/04/02 09:38:54;;;;;;;5.50;1.65;;;;;;;;;;4956959;28;20387;-84
2022/04/02 09:41:55;;;;;;;5.53;1.55;;;;;;;;;;4965881;28;20062;-84
2022/04/02 09:44:33;;;;;;;3.78;1.35;;;;;;;;;;4954823;28;20110;-86
2022/04/02 09:47:04;;;;;;;4.10;1.55;;;;;;;;;;4970863;28;20617;-85
2022/04/02 09:50:07;;;;;;;4.38;1.33;;;;;;;;;;4962486;28;20042;-85
2022/04/02 09:52:44;;;;;;;4.05;1.70;;;;;;;;;;4974312;28;20027;-85
2022/04/02 09:55:14;;;;;;;3.20;1.40;;;;;;;;;;4980345;28;20046;-84
2022/04/02 09:58:01;;;;;;;7.15;1.90;;;;;;;;;;4974478;28;20429;-83
2022/04/02 10:00:38;;;;;;;5.43;1.58;;;;;;;;;;4953828;28;20043;-84
2022/04/02 10:03:08;;;;;;;6.38;1.63;;;;;;;;;;4963751;28;20043;-84
2022/04/02 10:05:44;;;;;;;4.22;1.60;;;;;;;;;;4957276;28;20054;-84
2022/04/02 10:08:38;;;;;;;5.88;1.80;;;;;;;;;;4956750;28;20042;-84
2022/04/02 10:11:06;;;;;;;3.50;1.70;;;;;;;;;;4962283;28;20121;-85
2022/04/02 10:13:32;;;;;;;;;;;;;;;;;;4967063;28;20034;-83
2022/04/02 10:15:59;;;;;;;3.13;1.80;;;;;;;;;;4959627;28;19918;-83
2022/04/02 10:18:25;;;;;;;3.97;1.63;;;;;;;;;;4974687;28;20498;-85
2022/04/02 10:20:51;;;;;;;3.58;1.48;;;;;;;;;;4976347;28;20056;-85
2022/04/02 10:23:22;;;;;;;6.15;2.00;;;;;;;;;;4976653;28;20520;-84
2022/04/02 10:26:01;;;;;;;4.18;1.60;;;;;;;;;;4979883;28;20093;-85
2022/04/02 10:28:32;;;;;;;5.50;1.75;;;;;;;;;;4961014;28;20042;-85
2022/04/02 10:30:58;;;;;;;3.95;2.05;;;;;;;;;;4954941;28;20061;-85
2022/04/02 10:33:28;;;;;;;4.15;1.55;;;;;;;;;;4955007;28;20034;-84
2022/04/02 10:35:55;;;;;;;4.25;1.70;;;;;;;;;;4962345;28;20049;-83
2022/04/02 10:38:37;;;;;;;4.45;1.60;;;;;;;;;;4972901;28;20053;-77
2022/04/02 10:41:12;;;;;;;4.55;1.70;;;;;;;;;;4964828;28;20108;-81
2022/04/02 10:43:59;;;;;;;4.82;1.67;;;;;;;;;;4975729;28;20047;-82
2022/04/02 10:46:25;;;;;;;4.57;1.70;;;;;;;;;;4970259;28;20053;-83
2022/04/02 10:48:59;;;;;;;5.05;1.70;;;;;;;;;;4975331;28;20070;-82
2022/04/02 10:51:26;;;;;;;3.33;1.60;;;;;;;;;;4980834;28;20493;-81
2022/04/02 10:54:12;;;;;;;5.10;1.88;;;;;;;;;;4981383;28;20061;-80
2022/04/02 10:56:44;;;;;;;4.45;1.85;;;;;;;;;;4975878;28;20041;-81
2022/04/02 10:59:12;;;;;;;4.25;1.50;;;;;;;;;;4974639;28;20047;-83
2022/04/02 11:01:43;;;;;;;3.90;1.33;;;;;;;;;;4984334;28;20037;-82
2022/04/02 11:04:48;;;;;;;5.00;1.48;;;;;;;;;;4978667;28;20050;-83
2022/04/02 11:07:28;;;;;;;3.75;1.60;;;;;;;;;;4977583;28;20093;-83
2022/04/02 11:09:54;;;;;;;4.28;1.70;;;;;;;;;;4979771;28;20497;-83
2022/04/02 11:12:28;;;;;;;4.57;1.95;;;;;;;;;;4977248;28;20045;-83
2022/04/02 11:14:56;;;;;;;5.65;1.80;;;;;;;;;;4977765;28;20043;-82
2022/04/02 11:17:36;;;;;;;4.40;1.67;;;;;;;;;;4968686;28;20113;-84
2022/04/02 11:20:20;;;;;;;4.07;1.50;;;;;;;;;;4985824;28;20046;-83
2022/04/02 11:22:51;;;;;;;4.78;1.85;;;;;;;;;;4977082;28;20845;-82
2022/04/02 11:25:31;;;;;;;4.20;1.73;;;;;;;;;;4977564;28;20038;-83
2022/04/02 11:28:09;;;;;;;3.58;1.52;;;;;;;;;;4967497;28;20043;-81
2022/04/02 11:30:40;;;;;;;4.75;1.80;;;;;;;;;;4975665;28;20799;-75
2022/04/02 11:33:25;;;;;;;5.93;1.77;;;;;;;;;;4985265;28;20038;-75
2022/04/02 11:35:58;;;;;;;3.63;1.40;;;;;;;;;;4969253;28;20038;-77
2022/04/02 11:38:30;;;;;;;4.75;1.60;;;;;;;;;;4981397;28;20130;-75
2022/04/02 11:41:23;;;;;;;3.38;1.15;;;;;;;;;;4984613;28;20397;-75
2022/04/02 11:43:51;;;;;;;4.38;1.60;;;;;;;;;;4915776;29;20119;-77
2022/04/02 11:46:18;;;;;;;4.38;1.52;;;;;;;;;;4941770;28;20091;-76
2022/04/02 11:48:57;;;;;;;4.97;2.05;;;;;;;;;;4940608;28;20043;-77
2022/04/02 11:51:25;;;;;;;3.70;1.70;;;;;;;;;;4938422;28;20067;-75
2022/04/02 11:53:51;;;;;;;3.53;1.60;;;;;;;;;;4940907;28;20049;-75
2022/04/02 11:56:37;;;;;;;4.63;1.70;;;;;;;;;;4941792;28;20035;-77
2022/04/02 11:59:07;;;;;;;4.47;1.80;;;;;;;;;;4941552;28;20075;-80
2022/04/02 12:01:59;;;;;;;7.07;2.00;;;;;;;;;;4937808;28;20039;-79
2022/04/02 12:04:25;;;;;;;4.05;1.40;;;;;;;;;;4912558;29;20060;-81
2022/04/02 12:06:52;;;;;;;4.07;1.50;;;;;;;;;;4938964;28;20118;-79
2022/04/02 12:09:21;;;;;;;6.95;1.40;;;;;;;;;;4939046;28;20052;-80
2022/04/02 12:11:49;;;;;;;4.72;1.60;;;;;;;;;;4939018;28;20055;-80
2022/04/02 12:14:38;;;;;;;3.00;1.38;;;;;;;;;;4939779;28;20111;-80
2022/04/02 12:17:10;;;;;;;5.85;1.70;;;;;;;;;;4939030;28;20044;-83
2022/04/02 12:19:46;;;;;;;7.57;1.67;;;;;;;;;;4938201;28;20139;-80
2022/04/02 12:22:25;;;;;;;4.63;1.40;;;;;;;;;;4967276;28;20447;-81
2022/04/02 12:24:53;;;;;;;2.72;1.23;;;;;;;;;;4976839;28;20506;-80
2022/04/02 12:27:20;;;;;;;4.53;1.45;;;;;;;;;;4977017;28;20533;-79
2022/04/02 12:29:50;;;;;;;4.05;1.52;;;;;;;;;;4960666;28;20118;-78
2022/04/02 12:32:38;;;;;;;5.47;1.50;;;;;;;;;;4977389;28;20038;-78
2022/04/02 12:35:05;;;;;;;5.38;1.55;;;;;;;;;;4962576;28;20899;-81
2022/04/02 12:37:43;;;;;;;4.35;1.65;;;;;;;;;;4978712;28;20117;-79
2022/04/02 12:40:41;;;;;;;3.70;1.73;;;;;;;;;;4975414;28;20137;-79
2022/04/02 12:43:09;;;;;;;4.20;1.50;;;;;;;;;;4954973;28;20398;-80
2022/04/02 12:45:36;;;;;;;7.17;1.47;;;;;;;;;;4968286;28;20044;-80
2022/04/02 12:48:05;;;;;;;5.70;1.40;;;;;;;;;;4975311;28;20039;-79
2022/04/02 12:50:52;;;;;;;4.72;1.65;;;;;;;;;;4977172;28;20043;-81
2022/04/02 12:53:33;;;;;;;6.45;1.70;;;;;;;;;;4966177;28;20089;-80
2022/04/02 12:55:59;;;;;;;4.63;1.40;;;;;;;;;;4981998;28;20580;-79
2022/04/02 12:58:42;;;;;;;3.95;1.90;;;;;;;;;;4984609;28;20057;-80
2022/04/02 13:01:25;;;;;;;6.53;1.95;;;;;;;;;;4983168;28;20035;-80
2022/04/02 13:03:54;;;;;;;6.25;1.80;;;;;;;;;;4981802;28;20554;-80
2022/04/02 13:06:24;;;;;;;3.25;1.33;;;;;;;;;;4974775;28;20074;-80
2022/04/02 13:09:12;;;;;;;4.47;1.50;;;;;;;;;;4978583;28;20050;-80
2022/04/02 13:11:52;;;;;;;4.38;1.80;;;;;;;;;;4978838;28;20834;-80
2022/04/02 13:14:20;;;;;;;5.20;1.60;;;;;;;;;;4980991;28;20046;-82
2022/04/02 13:16:49;;;;;;;4.32;1.45;;;;;;;;;;4966409;28;20042;-80
2022/04/02 13:22:09;;;;;;;5.93;1.73;;;;;;;;;;4976231;28;20093;-79
2022/04/02 13:24:59;;;;;;;6.18;1.60;;;;;;;;;;4982748;28;20039;-80
2022/04/02 13:27:27;;;;;;;6.28;1.63;;;;;;;;;;4981939;28;20038;-79
2022/04/02 13:30:06;;;;;;;6.72;1.40;;;;;;;;;;4976639;28;20576;-79
2022/04/02 13:32:44;;;;;;;6.55;1.58;;;;;;;;;;4972635;28;20035;-80
2022/04/02 13:35:17;;;;;;;6.00;1.58;;;;;;;;;;4971839;28;20046;-79
2022/04/02 13:38:20;;;;;;;4.45;1.40;;;;;;;;;;4980316;28;20046;-82
2022/04/02 13:40:46;;;;;;;9.02;1.48;;;;;;;;;;4982193;28;20589;-83
2022/04/02 13:43:33;;;;;;;3.90;1.23;;;;;;;;;;4974107;28;20085;-82
2022/04/02 13:46:03;;;;;;;3.58;1.10;;;;;;;;;;4980627;28;20557;-81
2022/04/02 13:48:34;;;;;;;4.18;1.50;;;;;;;;;;4975886;28;20125;-81
2022/04/02 13:51:08;;;;;;;3.88;1.50;;;;;;;;;;4973471;28;20077;-81
2022/04/02 13:53:36;;;;;;;5.35;1.45;;;;;;;;;;4974876;28;20511;-81
2022/04/02 13:56:18;;;;;;;5.18;1.35;;;;;;;;;;4974619;28;20981;-81
2022/04/02 13:58:47;;;;;;;5.25;1.60;;;;;;;;;;4957409;28;20030;-81
2022/04/02 14:01:16;;;;;;;5.28;1.30;;;;;;;;;;4988876;28;20498;-80
2022/04/02 14:03:52;;;;;;;3.63;1.33;;;;;;;;;;4975102;28;20552;-80
2022/04/02 14:06:24;;;;;;;3.88;1.27;;;;;;;;;;4962821;28;20197;-80
2022/04/02 14:09:07;;;;;;;4.60;1.40;;;;;;;;;;4974179;28;20046;-81
2022/04/02 14:11:36;;;;;;;5.40;1.88;;;;;;;;;;4972279;28;20126;-79
2022/04/02 14:14:04;;;;;;;6.10;1.30;;;;;;;;;;4962601;28;20075;-80
2022/04/02 14:16:35;;;;;;;3.22;1.20;;;;;;;;;;4974330;28;20517;-79
2022/04/02 14:19:08;;;;;;;5.03;1.50;;;;;;;;;;4962868;28;20043;-80
2022/04/02 14:21:37;;;;;;;4.60;1.45;;;;;;;;;;4976768;28;20031;-79
2022/04/02 14:24:12;;;;;;;4.82;1.50;;;;;;;;;;4974759;28;20049;-80
2022/04/02 14:27:02;;;;;;;3.33;1.38;;;;;;;;;;4974326;28;20042;-81
2022/04/02 14:29:36;;;;;;;5.18;1.75;;;;;;;;;;4974882;28;20166;-82
2022/04/02 14:32:38;;;;;;;5.50;1.40;;;;;;;;;;4958048;28;20044;-79
2022/04/02 14:35:25;;;;;;;3.65;1.30;;;;;;;;;;4972438;28;20596;-80
2022/04/02 14:38:09;;;;;;;6.95;1.30;;;;;;;;;;4973342;28;20045;-80
2022/04/02 14:40:42;;;;;;;4.35;1.48;;;;;;;;;;4980985;28;20030;-80
2022/04/02 14:43:59;;;;;;;3.50;1.40;;;;;;;;;;4980828;28;20042;-80
2022/04/02 14:46:39;;;;;;;6.55;1.52;;;;;;;;;;4970924;28;20386;-80
2022/04/02 14:49:29;;;;;;;4.30;1.50;;;;;;;;;;4979600;28;20045;-81
2022/04/02 14:52:24;;;;;;;3.97;1.30;;;;;;;;;;4971355;28;20038;-80
2022/04/02 14:54:52;;;;;;;5.35;1.55;;;;;;;;;;4973156;28;20038;-81
2022/04/02 14:57:44;;;;;;;5.40;1.65;;;;;;;;;;4973412;28;20525;-82
2022/04/02 15:00:48;;;;;;;4.45;1.38;;;;;;;;;;4964746;28;20613;-82
2022/04/02 15:03:51;;;;;;;4.65;1.50;;;;;;;;;;4958744;28;20038;-85
2022/04/02 15:06:32;;;;;;;4.22;1.40;;;;;;;;;;4961754;28;20053;-83
2022/04/02 15:09:35;;;;;;;5.90;1.40;;;;;;;;;;4930933;28;20450;-83
2022/04/02 15:12:06;;;;;;;7.07;1.50;;;;;;;;;;4948970;28;20055;-83
2022/04/02 15:14:34;;;;;;;5.50;1.40;;;;;;;;;;4921621;28;20042;-83